Pencil Bluff, Arkansas
Current Conditions -  °F | °C
As of 12:53 PM on Saturday 25 Oct 2014 (Local Time) from KMWT Reporting Station
Clear Clear  
Wind Chill: 82°   Ceiling: Unl
Heat Index: 83°   Visibility: 10mi
Dew Point: 62°   Wind: 6mph
Humidity: 51%   Direction: 310°NW
Pressure: 30.08"   Gusts: NA
Location:  34.63°N, 93.73°W
Report Text: KMWT 251753Z AUTO 31005KT 10SM CLR 28/17 A3008 RMK AO2 SLP180 T02780167 10278 20122 58013
Loading
Personal Weather Stations






























Interactive Weather Map
Tropical Storm Tracking
New forecast layout! Learn more

10-Day Weather Forecast

Advertisements
Track Severe Weather on mobile